AirNav   Air Wisconsin Up To $57,000 Bonus
 
 384 users online  

IN2 Snow Lake Seaplane Base
Jamestown, Indiana, USA


FAA INFORMATION EFFECTIVE 26 JANUARY 2023

Location

FAA Identifier: IN2
Lat/Long: 41-43-47.4900N 085-01-57.2700W
41-43.791500N 085-01.954500W
41.7298583,-85.0325750
(estimated)
Elevation: 965 ft. / 294 m (estimated)
From city: 1 mile SE of JAMESTOWN, IN
Time zone: UTC -5 (UTC -4 during Daylight Saving Time)
Zip code: 46703

Seaplane Base Operations

Seaplane Base use: Open to the public
Activation date: 08/2020
Control tower: no
ARTCC: CHICAGO CENTER
FSS: TERRE HAUTE FLIGHT SERVICE STATION
NOTAMs facility: HUF (NOTAM-D service available)
Attendance: 
Segmented circle: no

Seaplane Base Communications

CTAF: 122.9
WX AWOS-3 at ANQ (6 nm SW): 118.175 (260-668-5630)
WX AWOS-3 at OEB (12 nm N): 118.125 (517-279-1810)
WX AWOS-3P at C62 (19 nm SW): 119.925 (260-347-2967)
WX AWOS-3 at IRS (19 nm W): 121.325 (269-659-8715)

Nearby radio navigation aids

VOR radial/distance  VOR name  Freq  Var
LFDr216/23.3LITCHFIELD VOR/DME111.2005W
OLKr039/(35.7)WEBSTER LAKE VOR110.4003W
AZOr144/38.3KALAMAZOO VOR/DME109.0001W

 
NDB name  Hdg/Dist  Freq  Var  ID
STURGIS110/18.638204WIRS .. .-. ...

Seaplane Base Services

Runway Information

Runway 16W/34W

Dimensions: 2675 x 100 ft. / 815 x 30 m
Surface: water
RUNWAY 16W  RUNWAY 34W
Latitude: 41-44.007000N41-43.589500N
Longitude: 085-02.056833W085-01.863333W
Elevation: 965.0 ft.965.0 ft.
Traffic pattern: leftleft

Seaplane Base Ownership and Management from official FAA records

Ownership: Publicly-owned
Owner: INDIANA DEPT. OF NAT. RESOURCES
402 W. WASHINGTON ST., RM W-255D
INDIANAPOLIS, IN 46204
Phone 317-232-0935
Manager: KENTON TURNER
402 W. WASHINGTON ST., RM W-255D
INDIANAPOLIS, IN 46204
Phone 317-232-0935

Instrument Procedures

There are no published instrument procedures at IN2.

Some nearby airports with instrument procedures:

KANQ - Tri-State Steuben County Airport (6 nm SW)
KOEB - Branch County Memorial Airport (12 nm N)
C62 - Kendallville Municipal Airport (19 nm SW)
KIRS - Kirsch Municipal Airport (19 nm W)
KJYM - Hillsdale Municipal Airport (23 nm NE)
 
Loc | Ops | Rwys | IFR | FBO | Links
Com | Nav | Svcs | Stats | Notes
Aerial photo
No photo
 
Airport distance calculator
Flying to Snow Lake Seaplane Base? Find the distance to fly.

From to IN2

Sunrise and sunset
Times for 05-Feb-2023
 Local
(UTC-5)
 Zulu
(UTC)
Morning civil twilight07:2012:20
Sunrise07:4912:49
Sunset17:5922:59
Evening civil twilight18:2823:28

Current date and time
Zulu (UTC)  05-Feb-2023 09:11:42
Local (UTC-5)  05-Feb-2023 04:11:42
 
METAR
KANQ 
6nm SW 
050855Z AUTO 22014KT 10SM BKN043 BKN050 BKN120 03/M05 A2992 RMK AO2
KOEB 
11nm N 
050855Z AUTO 22013G20KT 10SM CLR 03/M05 A2991 RMK AO2 T00271050
KIRS 
18nm W 
050855Z AUTO 23016G20KT 10SM CLR 02/M04 A2991 RMK AO2 T00191041
KC62 
19nm SW 
050835Z AUTO 23014G20KT 10SM CLR 02/M03 A2996 RMK AO2 T00291035
TAF
KBTL 
36nm N 
050540Z 0506/0606 20008KT P6SM BKN150 WS020/23040KT FM051100 21014KT P6SM BKN035 FM051500 23010KT 6SM BR VCSH OVC019 FM051800 25010KT P6SM OVC015
KAZO 
38nm NW 
050540Z 0506/0606 20012KT P6SM BKN150 WS020/23040KT FM051200 21012KT P6SM BKN035 FM051400 21010KT 6SM BR VCSH OVC025 FM051900 24009KT P6SM OVC015
KJXN 
41nm NE 
050540Z 0506/0606 21012G20KT P6SM BKN150 WS020/25050KT FM051600 22009KT P6SM OVC035 FM051700 23008KT P6SM OVC015
NOTAMs
Click for the latest NOTAMs
NOTAMs are issued by the DoD/FAA and will open in a separate window not controlled by AirNav.

 

 
 

Would you like to see your business listed on this page?

 If your business provides an interesting product or service to pilots, flight crews, aircraft, or users of the Snow Lake Seaplane Base, you should consider listing it here.  To start the listing process, click on the button below
 
Add a business
 

Other Pages about Snow Lake Seaplane Base

Update a link
 
Copyright © AirNav, LLC. All rights reserved. Privacy Policy  Contact